Station: Bundaberg

  Atmospheric Gas Attenuation - ITU Rec 676-11   --------------- db/100km ---------------
Date Time Temp RH % AH g/m3 Dew Point Wind Direction Speed kph Gust kph Barometer mB Rainfall Since 9am 24GHz 47GHz 76GHz 122GHz 134GHz 241GHz
27 01:10 22.9 86 17.57 20.4 6 7 1009.7 0 38.1 38.2 72.3 191.2 208.3 723.3
27 01:00 23.1 85 17.57 20.4 6 6 1009.8 0 38.1 38.1 72.1 190.7 207.8 721.4
27 00:50 23.3 84 17.56 20.4 6 6 1009.9 0 38.1 38.0 71.9 190.1 207.1 719.0
27 00:40 23.7 83 17.75 20.6 6 6 1010.1 0 38.4 38.2 72.4 191.5 208.9 725.4
27 00:30 24 83 18.06 20.9 6 7 1010.2 0 39.1 38.6 73.6 194.6 212.8 739.0
27 00:20 24.1 83 18.16 21 6 7 1010.4 0 39.3 38.8 74.0 195.6 214.1 743.4
27 00:10 24.1 83 18.16 21 6 6 1010.5 0 39.3 38.8 74.0 195.6 214.1 743.4
27 00:00 24.1 83 18.16 21 6 7 1010.6 0 39.3 38.8 74.0 195.6 214.1 743.5
26 23:50 24.2 83 18.26 21.1 6 6 1010.6 0 39.5 38.9 74.3 196.6 215.3 747.8
26 23:40 24.2 83 18.26 21.1 7 9 1010.6 0 39.5 38.9 74.3 196.6 215.3 747.8
26 23:30 24.3 83 18.37 21.2 9 11 1010.7 0 39.7 39.1 74.8 197.8 216.8 752.8
26 23:20 24.3 83 18.37 21.2 9 9 1010.8 0 39.7 39.1 74.8 197.8 216.8 752.8
26 23:10 24.2 83 18.26 21.1 9 11 1010.8 0 39.5 38.9 74.3 196.7 215.4 747.9
26 23:00 24.2 83 18.26 21.1 9 11 1010.8 0 39.5 38.9 74.3 196.7 215.4 747.9
26 22:50 24.3 82 18.15 21 9 9 1011 0 39.2 38.7 73.7 195.1 213.4 741.2
26 22:40 24.5 81 18.13 21 9 9 1011 0 39.2 38.5 73.5 194.3 212.6 738.2
26 22:30 24.8 80 18.21 21.1 7 9 1011.1 0 39.3 38.6 73.5 194.5 212.9 739.6
26 22:20 24.9 79 18.08 21 7 7 1011.2 0 39.0 38.3 72.9 192.7 210.7 731.8
26 22:10 24.9 79 18.08 21 9 9 1011.3 0 39.0 38.3 72.9 192.7 210.7 731.8
26 22:00 25 79 18.19 21.1 7 9 1011.4 0 39.2 38.4 73.3 193.8 212.1 736.7
26 21:50 25.1 78 18.06 21 7 9 1011.4 0 39.0 38.2 72.6 192.0 209.9 728.9
26 21:40 25.3 78 18.26 21.2 9 9 1011.3 0 39.4 38.4 73.3 193.9 212.3 737.4
26 21:30 25.5 77 18.23 21.2 11 13 1011.3 0 39.3 38.3 73.0 193.0 211.3 733.9
26 21:20 25.5 77 18.23 21.2 11 11 1011.2 0 39.3 38.3 73.0 193.0 211.3 733.9
26 21:10 25.7 77 18.43 21.4 11 11 1011.1 0 39.7 38.6 73.7 194.9 213.7 742.3
26 21:00 25.8 76 18.3 21.2 9 11 1011 0 39.4 38.3 73.0 193.1 211.5 734.5
26 20:50 26 75 18.26 21.2 9 11 1011.1 0 39.3 38.1 72.6 192.1 210.3 730.6
26 20:40 26.1 75 18.36 21.3 11 13 1011 0 39.5 38.2 73.0 193.1 211.5 734.7
26 20:30 26.2 75 18.46 21.4 13 17 1010.9 0 39.7 38.4 73.3 194.0 212.7 738.9
26 20:20 26.2 75 18.46 21.4 13 15 1010.7 0 39.7 38.4 73.3 194.0 212.7 738.8
26 20:10 26.3 75 18.57 21.5 13 17 1010.6 0 39.9 38.5 73.7 195.0 214.0 743.5
26 20:00 26.3 74 18.32 21.3 13 19 1010.5 0 39.4 38.1 72.6 192.0 210.3 730.5
26 19:50 26.4 74 18.42 21.4 15 17 1010.4 0 39.6 38.2 72.9 192.9 211.5 734.7
26 19:40 26.4 74 18.42 21.4 15 17 1010.3 0 39.6 38.2 72.9 192.9 211.5 734.6
26 19:30 26.5 73 18.27 21.3 15 19 1010.2 0 39.3 37.9 72.1 190.8 208.9 725.8
26 19:20 26.5 73 18.27 21.3 17 20 1010 0 39.3 37.8 72.1 190.8 208.9 725.7
26 19:10 26.6 73 18.38 21.4 17 19 1009.9 0 39.5 38.0 72.5 191.9 210.2 730.4
26 19:00 26.7 72 18.23 21.2 17 22 1009.8 0 39.2 37.7 71.7 189.8 207.7 721.7
26 18:50 26.8 71 18.07 21.1 19 20 1009.7 0 38.8 37.3 70.9 187.6 205.1 712.5
26 18:40 26.9 71 18.17 21.2 15 17 1009.6 0 39.0 37.5 71.3 188.6 206.3 716.6
26 18:30 27 70 18.02 21.1 19 24 1009.4 0 38.7 37.1 70.5 186.5 203.8 708.0
26 18:20 27.1 69 17.86 20.9 17 17 1009.3 0 38.4 36.8 69.7 184.3 201.2 698.9
26 18:10 27.4 68 17.89 21 17 20 1009.2 0 38.4 36.7 69.5 184.0 200.8 697.6
26 18:00 27.7 64 17.12 20.3 20 26 1009.1 0 36.7 35.2 65.9 174.3 189.0 656.6
26 17:50 27.9 61 16.5 19.9 22 26 1009 0 35.4 34.1 63.1 166.8 179.8 624.7
26 17:40 28.1 63 17.23 20.6 19 22 1008.8 0 36.9 35.3 66.0 174.6 189.5 658.4
26 17:30 28.5 62 17.33 20.5 20 26 1008.7 0 37.1 35.3 66.1 174.8 189.9 659.9
26 17:20 28.7 60 16.96 20.4 20 24 1008.6 0 36.3 34.5 64.4 170.2 184.2 640.2
26 17:10 28.7 60 16.96 20.4 19 24 1008.6 0 36.3 34.5 64.4 170.2 184.2 640.2
26 17:00 29.1 58 16.75 20 20 28 1008.5 0 35.8 34.0 63.1 166.9 180.4 626.8
26 16:50 29.1 57 16.46 19.7 22 24 1008.4 0 35.2 33.5 61.9 163.7 176.4 612.9
26 16:40 29.2 58 16.84 20.1 22 28 1008.3 0 36.0 34.1 63.4 167.7 181.4 630.2
26 16:30 29.9 56 16.89 20.2 22 28 1008.2 0 36.1 33.9 63.1 166.7 180.4 626.9
26 16:20 30.2 56 17.17 20.7 20 26 1008.1 0 36.6 34.3 64.0 169.2 183.5 637.7
26 16:10 29.7 56 16.71 20 22 26 1008 0 35.7 33.7 62.5 165.1 178.4 619.9
26 16:00 29.6 54 16.03 19.3 22 30 1007.9 0 34.3 32.6 59.7 157.9 169.4 588.7
26 15:50 30.1 53 16.16 19.5 26 28 1007.9 0 34.5 32.6 59.9 158.3 170.1 591.0
26 15:40 30.6 50 15.66 19 22 24 1007.8 0 33.4 31.6 57.5 151.9 162.4 564.3
26 15:30 30.7 50 15.75 19.1 20 32 1007.8 0 33.6 31.7 57.8 152.7 163.4 567.7
26 15:20 30.3 50 15.41 18.7 22 26 1007.9 0 32.9 31.3 56.7 149.9 159.8 555.1
26 15:10 31 50 16.01 19.4 19 22 1007.9 0 34.1 32.1 58.6 154.9 166.1 577.4
26 15:00 30.8 50 15.83 19.2 20 28 1008 0 33.8 31.8 58.0 153.4 164.2 570.7
26 14:50 30.7 49 15.43 18.8 22 24 1008.1 0 33.0 31.2 56.5 149.4 159.3 553.3
26 14:40 31 50 16.01 19.4 22 26 1008.2 0 34.1 32.1 58.6 154.9 166.2 577.5
26 14:30 30.2 48 14.72 18 22 33 1008.3 0 31.5 30.3 54.1 142.9 151.2 525.0
26 14:20 31.1 47 15.13 18.5 19 26 1008.3 0 32.3 30.6 55.1 145.5 154.6 537.2
26 14:10 30.7 47 14.8 18.4 22 26 1008.2 0 31.6 30.3 54.1 142.8 151.2 525.2
26 14:00 31.2 46 14.88 18.5 22 28 1008.2 0 31.8 30.2 54.0 142.7 151.2 525.4
26 13:50 30.9 48 15.28 18.6 19 22 1008.4 0 32.6 30.9 55.8 147.5 157.0 545.3
26 13:40 30.3 46 14.18 17.7 20 24 1008.6 0 30.4 29.4 52.0 137.2 144.2 500.6
26 13:30 30.2 49 15.02 18.6 22 35 1008.7 0 32.1 30.8 55.3 146.1 155.1 538.6
26 13:20 30.3 48 14.8 18.1 22 26 1008.8 0 31.7 30.4 54.4 143.6 152.0 528.1
26 13:10 31 45 14.4 18 20 26 1008.9 0 30.8 29.6 52.4 138.3 145.7 505.9
26 13:00 31.2 45 14.56 17.9 20 30 1008.9 0 31.1 29.7 52.8 139.5 147.3 511.6
26 12:50 30.7 45 14.17 17.7 20 24 1009 0 30.3 29.3 51.7 136.5 143.4 497.8
26 12:40 31.2 42 13.59 16.8 13 17 1009 0 29.1 28.3 49.2 129.8 135.3 469.8
26 12:30 30.7 43 13.54 16.7 19 28 1009 0 29.0 28.3 49.3 130.1 135.6 470.6
26 12:20 30.8 45 14.25 17.5 17 22 1009.2 0 30.5 29.4 51.9 137.1 144.2 500.7
26 12:10 30.5 47 14.65 17.9 19 24 1009.3 0 31.3 30.1 53.7 141.8 149.8 520.3
26 12:00 30.7 45 14.17 17.7 19 30 1009.4 0 30.3 29.3 51.7 136.5 143.4 497.9
26 11:50 30.8 47 14.88 18.5 24 33 1009.5 0 31.8 30.4 54.4 143.6 152.2 528.6
26 11:40 30.8 48 15.2 18.8 22 28 1009.8 0 32.5 30.9 55.6 147.0 156.3 543.0
26 11:30 30.3 51 15.72 19.3 13 20 1009.7 0 33.6 31.9 58.0 153.4 164.1 570.0
26 11:20 29.6 53 15.73 19 19 22 1009.9 0 33.7 32.2 58.6 154.9 165.7 575.6
26 11:10 29.3 51 14.89 18.1 15 19 1009.9 0 31.9 30.9 55.5 146.5 155.3 539.3
26 11:00 31.1 51 16.41 19.8 17 24 1009.9 0 35.0 32.7 60.2 159.2 171.4 595.8
26 10:50 30 52 15.77 19.1 15 22 1010 0 33.7 32.1 58.5 154.6 165.4 574.6
26 10:40 29.9 52 15.69 19 15 17 1010.2 0 33.6 32.0 58.3 153.9 164.6 571.7
26 10:30 29.3 55 16.06 19.3 15 22 1010.2 0 34.4 32.9 60.2 159.1 170.8 593.3
26 10:20 29.7 55 16.41 19.7 9 11 1010.3 0 35.1 33.3 61.3 162.2 174.6 606.7
26 10:10 29.3 58 16.94 20.2 11 15 1010.4 0 36.2 34.3 63.9 168.9 182.8 635.1
26 10:00 28.2 60 16.5 19.7 15 20 1010.5 0 35.4 34.0 62.9 166.3 179.3 622.9
26 09:50 29.1 57 16.46 19.7 19 22 1010.5 0 35.2 33.6 62.0 164.0 176.7 613.9
26 09:40 28.6 60 16.86 20.3 17 19 1010.4 0 36.1 34.5 64.1 169.5 183.3 637.0
26 09:30 27.9 60 16.23 19.4 11 20 1010.5 0 34.8 33.7 62.0 163.9 176.3 612.4
26 09:20 28.6 58 16.3 19.5 13 15 1010.5 0 34.9 33.5 61.8 163.3 175.7 610.2
26 09:10 28.6 59 16.58 19.8 20 26 1010.5 0 35.5 34.0 62.9 166.4 179.5 623.6
26 09:00 28 58 15.77 19.2 11 17 1010.6 0 33.9 32.9 60.0 158.6 169.8 589.7
26 08:50 27.8 63 16.95 20.1 17 19 1010.6 0 36.4 35.0 65.2 172.3 186.6 648.1
26 08:40 28.1 68 18.6 21.6 13 15 1010.5 0 39.8 37.8 72.1 190.8 209.4 727.7

Last Refresh: 27-Feb-2021 01:49:30

Most of the information presented on this site is sourced from the Bureau of Meteorology.  Copyright in all material sourced from the Bureau of Meteorology resides with the Commonwealth of Australia.